Time;durP1;ratioP1;P1;durP2;ratioP2;P2;SDS_P1;SDS_P2;PMS_P1;PMS_P2;Temp;Humidity;BMP_temperature;BMP_pressure;BME280_temperature;BME280_humidity;BME280_pressure;Samples;Min_cycle;Max_cycle;Signal;HPM_P1;HPM_P2
2023/01/11 00:01:06;;;;;;;0.95;0.60;;;;;;;6.04;100.00;100581.47;6223917;28;20053;-70
2023/01/11 00:04:09;;;;;;;2.97;0.85;;;;;;;6.09;100.00;100579.53;6223481;28;20057;-70
2023/01/11 00:07:11;;;;;;;4.40;0.85;;;;;;;6.05;100.00;100584.91;6223920;28;20060;-70
2023/01/11 00:10:12;;;;;;;3.08;0.82;;;;;;;6.12;100.00;100575.94;6223484;28;20528;-70
2023/01/11 00:13:14;;;;;;;1.63;0.80;;;;;;;6.15;100.00;100588.03;6223878;28;20053;-71
2023/01/11 00:16:16;;;;;;;1.33;0.52;;;;;;;6.14;100.00;100579.34;6223418;28;20493;-70
2023/01/11 00:19:19;;;;;;;0.25;0.25;;;;;;;6.14;100.00;100574.13;6223367;28;20053;-71
2023/01/11 00:22:21;;;;;;;1.08;0.70;;;;;;;6.19;100.00;100574.81;6223138;28;20041;-71
2023/01/11 00:25:22;;;;;;;0.98;0.57;;;;;;;6.13;100.00;100566.34;6223140;28;20058;-70
2023/01/11 00:28:23;;;;;;;5.78;0.40;;;;;;;6.14;100.00;100566.31;6223949;28;20506;-70
2023/01/11 00:31:25;;;;;;;1.80;0.73;;;;;;;6.11;100.00;100566.41;6223055;28;20046;-70
2023/01/11 00:34:27;;;;;;;0.50;0.38;;;;;;;6.08;100.00;100566.50;6223214;28;20066;-70
2023/01/11 00:37:29;;;;;;;0.45;0.40;;;;;;;6.09;100.00;100563.88;6222882;28;20076;-70
2023/01/11 00:40:30;;;;;;;0.65;0.30;;;;;;;6.11;100.00;100558.59;6223011;28;20052;-71
2023/01/11 00:50:11;;;;;;;;;;;;;;;6.13;100.00;100542.88;6223112;28;20057;-70
2023/01/11 00:53:13;;;;;;;2.35;0.70;;;;;;;6.18;100.00;100539.19;6222828;28;20328;-70
2023/01/11 00:56:14;;;;;;;1.00;0.50;;;;;;;6.28;100.00;100518.81;6222576;28;20144;-70
2023/01/11 00:59:15;;;;;;;0.85;0.32;;;;;;;6.23;100.00;100515.53;6222852;28;20054;-70
2023/01/11 01:02:17;;;;;;;1.40;0.40;;;;;;;6.25;100.00;100514.53;6222201;28;20506;-70
2023/01/11 01:05:20;;;;;;;0.40;0.30;;;;;;;6.28;100.00;100505.75;6222798;28;20065;-70
2023/01/11 01:08:21;;;;;;;0.43;0.40;;;;;;;6.27;100.00;100515.34;6222481;28;20049;-70
2023/01/11 01:11:23;;;;;;;0.52;0.43;;;;;;;6.33;100.00;100516.88;6222292;28;20042;-70
2023/01/11 01:14:27;;;;;;;1.85;0.60;;;;;;;6.31;100.00;100509.09;6222214;28;20053;-70
2023/01/11 01:17:29;;;;;;;3.40;0.70;;;;;;;6.35;100.00;100509.81;6222339;28;20053;-70
2023/01/11 01:20:31;;;;;;;0.52;0.50;;;;;;;6.35;100.00;100509.81;6222270;28;20050;-70
2023/01/11 01:23:33;;;;;;;2.78;0.60;;;;;;;6.38;100.00;100514.06;6221977;28;20049;-70
2023/01/11 01:26:34;;;;;;;1.40;0.70;;;;;;;6.44;100.00;100503.38;6222279;28;20049;-71
2023/01/11 01:29:35;;;;;;;0.73;0.50;;;;;;;6.45;100.00;100503.34;6222090;28;20057;-70
2023/01/11 01:32:37;;;;;;;0.73;0.50;;;;;;;6.45;100.00;100502.44;6222152;28;20057;-71
2023/01/11 01:35:39;;;;;;;5.15;0.63;;;;;;;6.52;100.00;100501.31;6221910;28;20077;-70
2023/01/11 01:38:40;;;;;;;2.08;0.52;;;;;;;6.53;100.00;100498.63;6222460;28;20050;-70
2023/01/11 01:41:42;;;;;;;0.45;0.40;;;;;;;6.54;100.00;100504.69;6221661;28;20049;-70
2023/01/11 01:44:59;;;;;;;0.43;0.35;;;;;;;6.54;100.00;100499.47;6221720;28;20429;-70
2023/01/11 01:48:01;;;;;;;1.90;0.65;;;;;;;6.58;100.00;100493.22;6222256;28;20061;-70
2023/01/11 01:51:06;;;;;;;1.67;0.40;;;;;;;6.56;100.00;100487.22;6221873;28;20053;-71
2023/01/11 01:54:11;;;;;;;3.35;0.30;;;;;;;6.63;100.00;100479.97;6221935;28;20072;-70
2023/01/11 01:57:19;;;;;;;2.28;0.50;;;;;;;6.69;100.00;100482.34;6221657;28;20395;-70
2023/01/11 02:00:21;;;;;;;0.75;0.40;;;;;;;6.66;100.00;100479.84;6225068;28;20073;-70
2023/01/11 02:03:25;;;;;;;1.55;0.60;;;;;;;6.67;100.00;100481.56;6226488;28;20057;-70
2023/01/11 02:06:28;;;;;;;6.38;1.52;;;;;;;6.65;100.00;100471.19;6226535;28;20053;-70
2023/01/11 02:09:35;;;;;;;0.30;0.30;;;;;;;6.65;100.00;100468.56;6226454;28;20056;-70
2023/01/11 02:12:40;;;;;;;1.58;0.57;;;;;;;6.64;100.00;100455.59;6226296;28;20053;-70
2023/01/11 02:15:41;;;;;;;1.55;0.63;;;;;;;6.69;100.00;100459.69;6226329;28;20441;-71
2023/01/11 02:18:43;;;;;;;0.65;0.40;;;;;;;6.68;100.00;100458.00;6226330;28;20153;-71
2023/01/11 02:22:02;;;;;;;1.17;0.43;;;;;;;6.70;100.00;100463.16;6225773;28;20406;-70
2023/01/11 02:25:24;;;;;;;1.13;0.68;;;;;;;6.67;100.00;100451.06;6226367;28;20054;-71
2023/01/11 02:28:32;;;;;;;0.73;0.47;;;;;;;6.63;100.00;100446.88;6225871;28;20050;-71
2023/01/11 02:31:41;;;;;;;1.08;0.43;;;;;;;6.72;100.00;100441.31;6226250;28;20061;-71
2023/01/11 02:34:48;;;;;;;0.68;0.40;;;;;;;6.71;100.00;100436.97;6225642;28;20050;-71
2023/01/11 02:37:59;;;;;;;0.30;0.30;;;;;;;6.68;100.00;100439.72;6226071;28;20049;-71
2023/01/11 02:41:09;;;;;;;0.68;0.43;;;;;;;6.76;100.00;100427.16;6225601;28;20085;-71
2023/01/11 02:47:43;;;;;;;0.65;0.40;;;;;;;6.79;100.00;100431.44;6226039;28;20054;-71
2023/01/11 02:50:49;;;;;;;;;;;;;;;6.77;100.00;100431.50;6225835;28;20050;-71
2023/01/11 02:53:54;;;;;;;0.57;0.30;;;;;;;6.76;100.00;100427.16;6225356;28;19921;-71
2023/01/11 02:56:58;;;;;;;1.83;0.57;;;;;;;6.74;100.00;100436.84;6225429;28;20049;-71
2023/01/11 03:00:02;;;;;;;0.25;0.22;;;;;;;6.75;100.00;100432.47;6225415;28;20046;-72
2023/01/11 03:03:14;;;;;;;0.30;0.30;;;;;;;6.75;100.00;100425.47;6225135;28;20053;-71
2023/01/11 03:06:20;;;;;;;1.60;0.50;;;;;;;6.73;100.00;100437.78;6225188;28;20054;-71
2023/01/11 03:09:26;;;;;;;0.70;0.50;;;;;;;6.73;100.00;100419.50;6225097;28;20183;-71
2023/01/11 03:12:53;;;;;;;0.73;0.50;;;;;;;6.70;100.00;100424.84;6224440;28;20050;-71
2023/01/11 03:16:09;;;;;;;0.55;0.50;;;;;;;6.73;100.00;100424.72;6224857;28;20497;-71
2023/01/11 03:19:25;;;;;;;0.30;0.30;;;;;;;6.74;100.00;100417.72;6225119;28;20509;-71
2023/01/11 03:22:33;;;;;;;0.35;0.35;;;;;;;6.84;100.00;100405.97;6224747;28;20054;-71
2023/01/11 03:25:47;;;;;;;0.30;0.30;;;;;;;6.81;100.00;100403.47;6224539;28;20398;-71
2023/01/11 03:28:57;;;;;;;0.30;0.30;;;;;;;6.85;100.00;100400.66;6224712;28;20049;-72
2023/01/11 03:32:13;;;;;;;1.55;0.65;;;;;;;6.89;100.00;100411.81;6224436;28;20064;-71
2023/01/11 03:35:21;;;;;;;0.50;0.40;;;;;;;6.90;100.00;100395.22;6224347;28;20417;-71
2023/01/11 03:38:28;;;;;;;0.80;0.55;;;;;;;6.98;100.00;100389.69;6224504;28;20050;-70
2023/01/11 03:41:35;;;;;;;0.95;0.50;;;;;;;7.03;100.00;100392.94;6224575;28;20490;-72
2023/01/11 03:44:43;;;;;;;0.52;0.45;;;;;;;7.07;100.00;100381.44;6224017;28;20057;-71
2023/01/11 03:47:45;;;;;;;0.52;0.40;;;;;;;7.09;100.00;100383.06;6223089;28;20057;-71
2023/01/11 03:50:49;;;;;;;6.53;0.60;;;;;;;7.18;100.00;100379.19;6224365;28;20045;-71
2023/01/11 03:53:52;;;;;;;0.32;0.32;;;;;;;7.19;100.00;100372.22;6223879;28;20042;-71
2023/01/11 03:57:01;;;;;;;0.35;0.30;;;;;;;7.25;100.00;100378.00;6224144;28;20054;-71
2023/01/11 04:00:04;;;;;;;1.48;0.63;;;;;;;7.28;100.00;100374.41;6223867;28;20057;-71
2023/01/11 04:03:08;;;;;;;0.98;0.50;;;;;;;7.32;100.00;100358.50;6223665;28;20531;-71
2023/01/11 04:06:11;;;;;;;0.70;0.30;;;;;;;7.32;100.00;100361.13;6223733;28;20120;-71
2023/01/11 04:09:13;;;;;;;2.08;0.55;;;;;;;7.42;100.00;100365.91;6224049;28;20049;-71
2023/01/11 04:12:14;;;;;;;0.20;0.20;;;;;;;7.40;100.00;100367.75;6219451;28;20276;-71
2023/01/11 04:15:16;;;;;;;0.43;0.43;;;;;;;7.43;100.00;100370.22;6221007;28;20046;-71
2023/01/11 04:18:19;;;;;;;0.73;0.47;;;;;;;7.47;100.00;100371.78;6223443;28;20056;-71
2023/01/11 04:21:20;;;;;;;0.38;0.38;;;;;;;7.53;100.00;100363.63;6223496;28;20120;-71
2023/01/11 04:24:21;;;;;;;0.45;0.32;;;;;;;7.57;100.00;100363.44;6223213;28;20407;-71
2023/01/11 04:27:23;;;;;;;0.47;0.40;;;;;;;7.61;100.00;100358.91;6221901;28;20053;-71
2023/01/11 04:30:25;;;;;;;0.30;0.30;;;;;;;7.63;100.00;100362.31;6223038;28;20053;-71
2023/01/11 04:33:27;;;;;;;1.17;0.63;;;;;;;7.67;100.00;100355.16;6222912;28;20052;-70
2023/01/11 04:36:30;;;;;;;0.30;0.30;;;;;;;7.75;100.00;100361.72;6223085;28;20497;-71
2023/01/11 04:39:31;;;;;;;0.40;0.28;;;;;;;7.79;100.00;100362.41;6222837;28;20092;-71
2023/01/11 04:42:32;;;;;;;0.25;0.22;;;;;;;7.82;100.00;100359.66;6222948;28;20057;-71
2023/01/11 04:45:34;;;;;;;0.30;0.30;;;;;;;7.79;100.00;100347.56;6222717;28;20390;-71
2023/01/11 04:48:38;;;;;;;0.20;0.20;;;;;;;7.78;100.00;100352.88;6223015;28;20053;-72
2023/01/11 04:51:39;;;;;;;0.30;0.30;;;;;;;7.79;100.00;100362.41;6222534;28;20050;-71
2023/01/11 04:54:41;;;;;;;0.20;0.20;;;;;;;7.82;100.00;100360.50;6214768;28;20050;-71
2023/01/11 04:57:43;;;;;;;0.32;0.32;;;;;;;7.85;100.00;100346.41;6222888;28;20054;-71
2023/01/11 05:00:44;;;;;;;0.20;0.20;;;;;;;7.82;100.00;100355.28;6222662;28;20053;-71
2023/01/11 05:03:47;;;;;;;0.28;0.28;;;;;;;7.79;100.00;100357.19;6222420;28;20055;-71
2023/01/11 05:06:48;;;;;;;0.82;0.50;;;;;;;7.83;100.00;100354.34;6222538;28;20422;-72
2023/01/11 05:09:50;;;;;;;0.40;0.40;;;;;;;7.84;100.00;100352.56;6222273;28;20422;-71
2023/01/11 05:12:51;;;;;;;0.25;0.25;;;;;;;7.83;100.00;100361.34;6222421;28;20042;-72
2023/01/11 05:15:52;;;;;;;0.63;0.30;;;;;;;7.81;100.00;100365.78;6222355;28;20061;-72
2023/01/11 05:18:56;;;;;;;0.35;0.30;;;;;;;7.78;100.00;100360.72;6222297;28;20421;-72
2023/01/11 05:21:58;;;;;;;0.40;0.30;;;;;;;7.78;100.00;100361.56;6222439;28;20054;-71
2023/01/11 05:24:59;;;;;;;0.40;0.40;;;;;;;7.79;100.00;100365.03;6222026;28;20052;-72
2023/01/11 05:28:00;;;;;;;0.57;0.30;;;;;;;7.78;100.00;100373.81;6222615;28;20046;-72
2023/01/11 05:31:02;;;;;;;0.77;0.40;;;;;;;7.79;100.00;100370.25;6221902;28;20050;-72
2023/01/11 05:34:06;;;;;;;2.42;0.68;;;;;;;7.75;100.00;100371.31;6221884;28;20045;-72
2023/01/11 05:37:08;;;;;;;0.40;0.28;;;;;;;7.76;100.00;100370.41;6222186;28;20097;-72
2023/01/11 05:40:10;;;;;;;0.20;0.20;;;;;;;7.73;100.00;100366.19;6221973;28;20525;-72
2023/01/11 05:43:12;;;;;;;0.30;0.30;;;;;;;7.79;100.00;100359.81;6221885;28;20045;-71
2023/01/11 05:46:12;;;;;;;0.40;0.40;;;;;;;7.78;100.00;100361.56;6221840;28;20054;-72
2023/01/11 05:49:15;;;;;;;0.75;0.40;;;;;;;7.80;100.00;100358.88;6222022;28;20054;-72
2023/01/11 05:52:17;;;;;;;0.80;0.30;;;;;;;7.78;100.00;100356.34;6221681;28;20057;-72
2023/01/11 05:55:19;;;;;;;0.30;0.30;;;;;;;7.81;100.00;100358.81;6222343;28;20052;-72
2023/01/11 05:58:20;;;;;;;0.28;0.28;;;;;;;7.81;100.00;100355.31;6221827;28;20046;-72
2023/01/11 06:01:23;;;;;;;0.55;0.40;;;;;;;7.79;100.00;100358.03;6221875;28;20050;-72
2023/01/11 06:04:26;;;;;;;0.43;0.43;;;;;;;7.77;100.00;100356.44;6221688;28;20509;-71
2023/01/11 06:07:27;;;;;;;0.30;0.30;;;;;;;7.79;100.00;100360.66;6221971;28;20046;-71
2023/01/11 06:10:28;;;;;;;0.60;0.50;;;;;;;7.84;100.00;100361.25;6221731;28;20045;-71
2023/01/11 06:13:30;;;;;;;0.40;0.40;;;;;;;7.83;100.00;100359.56;6221513;28;20486;-71
2023/01/11 06:16:31;;;;;;;0.75;0.50;;;;;;;7.85;100.00;100359.50;6221817;28;20064;-72
2023/01/11 06:19:34;;;;;;;0.55;0.30;;;;;;;7.87;100.00;100358.50;6221526;28;20046;-72
2023/01/11 06:22:35;;;;;;;0.30;0.30;;;;;;;7.92;100.00;100355.69;6221465;28;20050;-71
2023/01/11 06:25:37;;;;;;;0.70;0.70;;;;;;;7.92;100.00;100355.69;6221481;28;20072;-71
2023/01/11 06:28:39;;;;;;;0.40;0.40;;;;;;;7.94;100.00;100351.19;6221700;28;20093;-72
2023/01/11 06:31:40;;;;;;;0.80;0.50;;;;;;;7.93;100.00;100344.28;6219636;28;20429;-72
2023/01/11 06:34:43;;;;;;;0.32;0.32;;;;;;;7.97;100.00;100356.28;6221320;28;20057;-71
2023/01/11 06:37:44;;;;;;;0.38;0.38;;;;;;;7.98;100.00;100360.59;6221310;28;20058;-71
2023/01/11 06:40:52;;;;;;;0.50;0.50;;;;;;;8.00;100.00;100369.25;6221337;28;20530;-72
2023/01/11 06:43:53;;;;;;;0.47;0.47;;;;;;;7.99;100.00;100358.81;6221078;28;20046;-71
2023/01/11 06:46:54;;;;;;;0.32;0.32;;;;;;;8.03;100.00;100365.59;6223975;28;20061;-72
2023/01/11 06:49:57;;;;;;;0.95;0.68;;;;;;;8.01;100.00;100363.06;6225409;28;20064;-72
2023/01/11 06:53:00;;;;;;;0.43;0.38;;;;;;;8.05;100.00;100354.16;6225332;28;20069;-71
2023/01/11 06:56:02;;;;;;;0.20;0.20;;;;;;;8.06;100.00;100366.31;6225510;28;20061;-71
2023/01/11 06:59:03;;;;;;;0.38;0.38;;;;;;;8.04;100.00;100378.63;6225500;28;20052;-71
2023/01/11 07:02:04;;;;;;;0.40;0.40;;;;;;;8.12;100.00;100383.47;6216019;28;20046;-72
2023/01/11 07:05:08;;;;;;;0.30;0.30;;;;;;;8.16;100.00;100387.63;6225122;28;20046;-72
2023/01/11 07:08:10;;;;;;;0.85;0.40;;;;;;;8.17;100.00;100376.25;6225399;28;20069;-72
2023/01/11 07:11:12;;;;;;;0.32;0.32;;;;;;;8.16;100.00;100384.19;6224830;28;20054;-72
2023/01/11 07:14:18;;;;;;;0.40;0.40;;;;;;;8.15;100.00;100385.94;6225030;28;20042;-72
2023/01/11 07:17:20;;;;;;;0.77;0.50;;;;;;;8.16;100.00;100390.25;6225936;28;20473;-72
2023/01/11 07:20:23;;;;;;;0.55;0.50;;;;;;;8.21;100.00;100390.03;6231902;28;20049;-73
2023/01/11 07:23:25;;;;;;;1.30;0.30;;;;;;;8.20;100.00;100399.66;6235893;28;20046;-72
2023/01/11 07:26:27;;;;;;;0.60;0.50;;;;;;;8.21;100.00;100408.34;6200024;28;20061;-72
2023/01/11 07:29:28;;;;;;;1.00;0.70;;;;;;;8.27;100.00;100402.84;6223164;28;20048;-72
2023/01/11 07:32:30;;;;;;;0.40;0.40;;;;;;;8.23;100.00;100396.06;6224147;28;20072;-72
2023/01/11 07:35:32;;;;;;;0.47;0.30;;;;;;;8.30;100.00;100400.03;6224553;28;20053;-72
2023/01/11 07:38:34;;;;;;;0.68;0.60;;;;;;;8.24;100.00;100398.59;6224634;28;20049;-72
2023/01/11 07:44:55;;;;;;;0.63;0.50;;;;;;;8.25;100.00;100413.38;6224388;28;20053;-73
2023/01/11 07:47:56;;;;;;;2.17;0.70;;;;;;;8.24;100.00;100409.06;6218710;28;20065;-73
2023/01/11 07:50:59;;;;;;;0.88;0.75;;;;;;;8.24;100.00;100401.19;6224125;28;20049;-72
2023/01/11 07:54:01;;;;;;;0.70;0.60;;;;;;;8.23;100.00;100403.91;6224076;28;20061;-73
2023/01/11 07:57:02;;;;;;;0.90;0.65;;;;;;;8.21;100.00;100395.25;6224232;28;20046;-73
2023/01/11 08:00:05;;;;;;;0.88;0.60;;;;;;;8.21;100.00;100403.97;6223994;28;20417;-73
2023/01/11 08:03:06;;;;;;;3.47;0.95;;;;;;;8.18;100.00;100400.66;6223751;28;20057;-73
2023/01/11 08:06:09;;;;;;;0.80;0.80;;;;;;;8.19;100.00;100397.97;6223976;28;20049;-73
2023/01/11 08:09:10;;;;;;;1.00;0.85;;;;;;;8.17;100.00;100415.50;6223768;28;20405;-72
2023/01/11 08:15:32;;;;;;;1.48;0.90;;;;;;;8.16;100.00;100405.97;6223746;28;20480;-73
2023/01/11 08:18:33;;;;;;;1.52;0.80;;;;;;;8.20;100.00;100409.28;6223990;28;20053;-73
2023/01/11 08:21:36;;;;;;;0.80;0.73;;;;;;;8.17;100.00;100409.41;6223495;28;20129;-72
2023/01/11 08:24:37;;;;;;;1.17;0.90;;;;;;;8.18;100.00;100405.91;6222925;28;20057;-73
2023/01/11 08:27:39;;;;;;;0.75;0.75;;;;;;;8.20;100.00;100417.13;6223550;28;20046;-73
2023/01/11 08:30:40;;;;;;;1.00;0.90;;;;;;;8.21;100.00;100414.44;6226837;28;20065;-72
2023/01/11 08:33:42;;;;;;;0.80;0.75;;;;;;;8.17;100.00;100425.97;6224865;28;20419;-72
2023/01/11 08:36:44;;;;;;;0.65;0.65;;;;;;;8.18;100.00;100421.59;6225891;28;20433;-72
2023/01/11 08:39:47;;;;;;;1.40;1.02;;;;;;;8.20;100.00;100423.22;6247731;28;20060;-72
2023/01/11 08:42:48;;;;;;;0.98;0.73;;;;;;;8.19;100.00;100428.53;6296408;22;20277;-71
2023/01/11 08:45:50;;;;;;;2.10;1.05;;;;;;;8.20;100.00;100438.91;6228278;28;20049;-71
2023/01/11 08:48:52;;;;;;;1.30;0.70;;;;;;;8.23;100.00;100433.53;6221408;28;20057;-72
2023/01/11 08:51:55;;;;;;;1.02;0.93;;;;;;;8.26;100.00;100433.38;6222395;28;20130;-71
2023/01/11 08:54:56;;;;;;;1.20;0.88;;;;;;;8.29;100.00;100421.91;6180120;28;20427;-72
2023/01/11 08:57:57;;;;;;;0.88;0.60;;;;;;;8.28;100.00;100431.53;6189200;28;20050;-71
2023/01/11 09:01:01;;;;;;;0.80;0.80;;;;;;;8.30;100.00;100434.06;6197956;28;20057;-71
2023/01/11 09:04:03;;;;;;;0.70;0.70;;;;;;;8.33;100.00;100429.53;6203530;28;20046;-71
2023/01/11 09:07:05;;;;;;;2.30;0.73;;;;;;;8.34;100.00;100433.84;6198092;28;20046;-71
2023/01/11 09:10:07;;;;;;;2.20;1.08;;;;;;;8.37;100.00;100436.38;6197402;28;20057;-72
2023/01/11 09:13:09;;;;;;;2.03;0.98;;;;;;;8.39;100.00;100444.13;6198023;28;20046;-71
2023/01/11 09:16:10;;;;;;;4.47;1.50;;;;;;;8.41;100.00;100438.84;6197769;28;20057;-71
2023/01/11 09:19:11;;;;;;;1.45;1.00;;;;;;;8.43;100.00;100443.06;6198146;28;20065;-71
2023/01/11 09:22:14;;;;;;;1.83;1.20;;;;;;;8.50;100.00;100443.63;6197411;28;20410;-70
2023/01/11 09:25:16;;;;;;;3.47;1.83;;;;;;;8.52;100.00;100449.63;6197854;28;20057;-71
2023/01/11 09:28:18;;;;;;;2.95;1.60;;;;;;;8.60;100.00;100453.56;6197811;28;20077;-71
2023/01/11 09:31:19;;;;;;;2.15;1.42;;;;;;;8.59;100.00;100453.63;6197773;28;20058;-72
2023/01/11 09:34:21;;;;;;;2.25;1.75;;;;;;;8.64;100.00;100451.63;6197773;28;20054;-71
2023/01/11 09:37:23;;;;;;;2.55;1.55;;;;;;;8.67;100.00;100458.47;6198001;28;20053;-72
2023/01/11 09:40:34;;;;;;;2.20;1.45;;;;;;;8.68;100.00;100462.81;6197442;28;20050;-71
2023/01/11 09:43:42;;;;;;;4.35;1.98;;;;;;;8.72;100.00;100462.59;6195811;28;20092;-71
2023/01/11 09:46:47;;;;;;;2.33;1.97;;;;;;;8.77;100.00;100471.06;6197491;28;20053;-71
2023/01/11 09:49:54;;;;;;;3.05;1.83;;;;;;;8.82;100.00;100466.44;6196742;28;20062;-70
2023/01/11 09:53:02;;;;;;;5.03;2.25;;;;;;;8.86;100.00;100469.75;6197207;28;20046;-70
2023/01/11 09:56:07;;;;;;;3.78;2.13;;;;;;;8.94;100.00;100470.19;6197222;28;20054;-70
2023/01/11 09:59:19;;;;;;;2.22;1.85;;;;;;;8.98;100.00;100476.97;6197295;28;20050;-72
2023/01/11 10:02:33;;;;;;;3.35;2.03;;;;;;;9.07;100.00;100481.75;6173370;28;20058;-70
2023/01/11 10:05:50;;;;;;;3.28;2.25;;;;;;;9.09;100.00;100484.31;6172892;28;20412;-71
2023/01/11 10:09:16;;;;;;;7.15;3.08;;;;;;;9.10;100.00;100488.59;6173407;28;20506;-71
2023/01/11 10:12:31;;;;;;;8.98;2.45;;;;;;;9.08;100.00;100488.69;6173141;28;20086;-73
2023/01/11 10:15:40;;;;;;;3.85;2.70;;;;;;;9.13;100.00;100483.22;6195710;28;20129;-71
2023/01/11 10:18:55;;;;;;;2.38;1.95;;;;;;;9.20;100.00;100491.59;6192853;28;20513;-72
2023/01/11 10:22:00;;;;;;;3.95;2.47;;;;;;;9.27;100.00;100493.00;6201384;28;20050;-70
2023/01/11 10:25:15;;;;;;;5.00;3.08;;;;;;;9.26;100.00;100488.66;6201731;28;20185;-70
2023/01/11 10:28:26;;;;;;;5.03;3.00;;;;;;;9.24;100.00;100487.91;6197692;28;20050;-72
2023/01/11 10:31:44;;;;;;;5.88;2.78;;;;;;;9.22;100.00;100487.09;6200909;28;20050;-70
2023/01/11 10:34:59;;;;;;;6.45;2.88;;;;;;;9.18;100.00;100491.69;6201291;28;20078;-70
2023/01/11 10:38:25;;;;;;;4.78;2.95;;;;;;;9.24;100.00;100498.38;6201238;28;20421;-73
2023/01/11 10:41:37;;;;;;;4.22;2.92;;;;;;;9.20;100.00;100491.59;6201138;28;20046;-71
2023/01/11 10:44:46;;;;;;;5.20;2.88;;;;;;;9.24;100.00;100482.66;6201128;28;20145;-71
2023/01/11 10:47:55;;;;;;;5.43;2.97;;;;;;;9.22;100.00;100482.75;6201494;28;20422;-70
2023/01/11 10:51:03;;;;;;;5.03;2.83;;;;;;;9.22;100.00;100480.13;6200833;28;20377;-71
2023/01/11 10:54:14;;;;;;;5.18;3.35;;;;;;;9.25;100.00;100473.84;6200765;28;20054;-70
2023/01/11 10:57:23;;;;;;;6.15;3.17;;;;;;;9.32;100.00;100491.81;6201336;28;20054;-71
2023/01/11 11:00:30;;;;;;;;;;;;;;;9.31;100.00;100498.00;6201363;28;20058;-71
2023/01/11 11:04:09;;;;;;;4.65;2.70;;;;;;;9.27;100.00;100506.94;6201155;28;19928;-72
2023/01/11 11:07:15;;;;;;;4.70;2.53;;;;;;;9.24;100.00;100507.09;6194361;28;20502;-72
2023/01/11 11:10:21;;;;;;;3.65;2.40;;;;;;;9.20;100.00;100497.69;6200844;28;20054;-73
2023/01/11 11:13:36;;;;;;;7.90;2.63;;;;;;;9.21;100.00;100498.53;6200854;28;20047;-72
2023/01/11 11:16:53;;;;;;;4.07;2.17;;;;;;;9.19;100.00;100493.38;6200390;28;20053;-71
2023/01/11 11:19:54;;;;;;;5.35;2.70;;;;;;;9.24;100.00;100493.13;6200861;28;20418;-71
2023/01/11 11:22:56;;;;;;;7.80;1.92;;;;;;;9.26;100.00;100494.75;6200421;28;20046;-71
2023/01/11 11:26:02;;;;;;;7.90;2.55;;;;;;;9.25;100.00;100494.81;6200586;28;20056;-71
2023/01/11 11:29:06;;;;;;;5.97;2.95;;;;;;;9.23;100.00;100494.06;6200682;28;20289;-73
2023/01/11 11:32:17;;;;;;;9.05;2.53;;;;;;;9.24;100.00;100495.75;6199238;28;20050;-71
2023/01/11 11:35:30;;;;;;;6.22;2.70;;;;;;;9.23;100.00;100504.56;6200441;28;20046;-70
2023/01/11 11:38:34;;;;;;;3.60;2.30;;;;;;;9.21;100.00;100501.16;6200276;28;20054;-72
2023/01/11 11:41:46;;;;;;;5.43;2.90;;;;;;;9.31;100.00;100499.75;6199916;28;20077;-71
2023/01/11 11:45:05;;;;;;;5.65;2.45;;;;;;;9.30;100.00;100509.38;6199731;28;20046;-71
2023/01/11 11:48:06;;;;;;;4.88;2.00;;;;;;;9.27;100.00;100514.81;6199711;28;20050;-71
2023/01/11 11:51:21;;;;;;;4.45;2.38;;;;;;;9.27;100.00;100512.19;6199872;28;20054;-71
2023/01/11 11:54:27;;;;;;;3.47;2.42;;;;;;;9.31;100.00;100520.72;6199580;28;20042;-72
2023/01/11 11:57:34;;;;;;;4.28;2.85;;;;;;;9.33;100.00;100521.50;6200034;28;20054;-71
2023/01/11 12:00:45;;;;;;;8.27;2.88;;;;;;;9.34;100.00;100517.94;6199517;28;20046;-71
2023/01/11 12:03:48;;;;;;;9.43;2.78;;;;;;;9.39;100.00;100511.53;6199598;28;20054;-73
2023/01/11 12:07:05;;;;;;;4.25;2.35;;;;;;;9.42;100.00;100518.41;6199360;28;20050;-72
2023/01/11 12:10:12;;;;;;;4.18;2.58;;;;;;;9.43;100.00;100520.09;6199120;28;20422;-71
2023/01/11 12:13:27;;;;;;;3.72;2.40;;;;;;;9.38;100.00;100522.97;6198867;28;20057;-70
2023/01/11 12:16:35;;;;;;;7.90;2.88;;;;;;;9.42;100.00;100526.28;6199190;28;20050;-70
2023/01/11 12:19:41;;;;;;;7.95;2.78;;;;;;;9.48;100.00;100514.59;6198863;28;20053;-70
2023/01/11 12:22:43;;;;;;;4.72;2.38;;;;;;;9.44;100.00;100513.91;6199191;28;20058;-70
2023/01/11 12:26:11;;;;;;;2.95;1.98;;;;;;;9.46;100.00;100511.22;6198798;28;20052;-71
2023/01/11 12:29:26;;;;;;;10.10;2.30;;;;;;;9.45;100.00;100520.88;6199011;28;20057;-70
2023/01/11 12:32:46;;;;;;;7.07;3.15;;;;;;;9.44;100.00;100518.31;6198646;28;20057;-71
2023/01/11 12:35:55;;;;;;;3.55;2.33;;;;;;;9.49;100.00;100527.63;6198639;28;20046;-70
2023/01/11 12:39:09;;;;;;;5.15;2.30;;;;;;;9.45;100.00;100527.88;6196268;28;20058;-71
2023/01/11 12:42:37;;;;;;;4.22;1.98;;;;;;;9.45;100.00;100530.50;6198424;28;20046;-71
2023/01/11 12:45:49;;;;;;;7.38;2.63;;;;;;;9.41;100.00;100524.59;6197823;28;20050;-70
2023/01/11 12:49:17;;;;;;;4.95;1.70;;;;;;;9.47;100.00;100526.03;6198469;28;20050;-71
2023/01/11 12:52:53;;;;;;;5.97;2.50;;;;;;;9.54;100.00;100527.41;6197987;28;20054;-71
2023/01/11 12:56:08;;;;;;;11.30;2.50;;;;;;;9.59;100.00;100539.34;6198373;28;20518;-71
2023/01/11 12:59:22;;;;;;;12.25;1.90;;;;;;;9.62;100.00;100543.59;6198288;28;20054;-73
2023/01/11 13:02:41;;;;;;;14.80;2.38;;;;;;;9.68;100.00;100542.44;6198266;28;20502;-70
2023/01/11 13:05:56;;;;;;;5.30;2.20;;;;;;;9.62;100.00;100541.81;6197851;28;20053;-70
2023/01/11 13:09:03;;;;;;;15.57;4.65;;;;;;;9.59;100.00;100560.34;6198364;28;20046;-70
2023/01/11 13:12:12;;;;;;;11.30;3.05;;;;;;;9.51;100.00;100567.75;6197509;28;20054;-70
2023/01/11 13:15:28;;;;;;;5.03;1.85;;;;;;;9.45;100.00;100581.22;6196467;28;20042;-71
2023/01/11 13:18:40;;;;;;;3.83;1.65;;;;;;;9.45;100.00;100564.59;6196817;28;20049;-70
2023/01/11 13:21:52;;;;;;;4.13;1.75;;;;;;;9.48;100.00;100570.53;6196378;28;20057;-70
2023/01/11 13:24:53;;;;;;;3.15;1.50;;;;;;;9.45;100.00;100575.97;6196383;28;20093;-70
2023/01/11 13:27:57;;;;;;;8.45;2.50;;;;;;;9.37;100.00;100575.50;6193813;28;20052;-70
2023/01/11 13:31:02;;;;;;;7.43;2.33;;;;;;;9.35;100.00;100577.34;6202261;28;20424;-70
2023/01/11 13:34:10;;;;;;;5.72;1.95;;;;;;;9.28;100.00;100574.19;6197431;28;20524;-70
2023/01/11 13:37:19;;;;;;;6.97;2.20;;;;;;;9.37;100.00;100583.38;6198039;28;20054;-70
2023/01/11 13:40:23;;;;;;;;;;;;;;;9.36;100.00;100584.31;6197994;28;20046;-70
2023/01/11 13:43:38;;;;;;;2.65;1.30;;;;;;;9.29;100.00;100598.63;6197779;28;19929;-70
2023/01/11 13:46:53;;;;;;;11.13;1.25;;;;;;;9.27;100.00;100603.13;6197343;28;20054;-70
2023/01/11 13:50:01;;;;;;;5.75;0.98;;;;;;;9.29;100.00;100601.25;6197533;28;20054;-70
2023/01/11 13:53:11;;;;;;;6.90;1.35;;;;;;;9.22;100.00;100603.34;6197298;28;20051;-69
2023/01/11 13:56:18;;;;;;;1.67;0.85;;;;;;;9.23;100.00;100599.78;6199311;28;20774;-70
2023/01/11 13:59:27;;;;;;;6.97;0.98;;;;;;;9.18;100.00;100601.81;6202354;28;20046;-70
2023/01/11 14:02:38;;;;;;;3.60;0.85;;;;;;;9.15;100.00;100612.44;6201545;28;20046;-70
2023/01/11 14:05:48;;;;;;;7.00;0.95;;;;;;;9.18;100.00;100621.94;6202181;28;20050;-70
2023/01/11 14:09:12;;;;;;;2.50;0.70;;;;;;;9.09;100.00;100631.94;6202346;28;20058;-70
2023/01/11 14:12:26;;;;;;;5.75;1.05;;;;;;;9.10;100.00;100638.88;6201936;28;20061;-70
2023/01/11 14:15:32;;;;;;;7.85;1.30;;;;;;;9.10;100.00;100651.13;6194270;28;20049;-69
2023/01/11 14:18:43;;;;;;;5.28;1.27;;;;;;;9.09;100.00;100650.28;6201669;28;20073;-70
2023/01/11 14:22:05;;;;;;;2.28;0.95;;;;;;;9.07;100.00;100656.53;6201679;28;20061;-70
2023/01/11 14:25:16;;;;;;;6.03;1.83;;;;;;;8.97;100.00;100653.50;6201527;28;20418;-70
2023/01/11 14:28:32;;;;;;;4.07;1.48;;;;;;;8.95;100.00;100659.72;6201961;28;20051;-70
2023/01/11 14:31:55;;;;;;;2.40;0.70;;;;;;;8.95;100.00;100667.59;6198923;28;20066;-69
2023/01/11 14:35:23;;;;;;;2.47;1.05;;;;;;;8.87;100.00;100663.56;6197810;28;20050;-69
2023/01/11 14:39:05;;;;;;;12.13;1.42;;;;;;;8.81;100.00;100674.34;6203006;28;20054;-70
2023/01/11 14:45:44;;;;;;;3.72;0.88;;;;;;;8.82;100.00;100691.78;6281957;22;20501;-71
2023/01/11 14:48:57;;;;;;;4.10;0.87;;;;;;;8.74;100.00;100691.28;6225816;28;20053;-71